Terminal Aerodrome Forecast
Issued by NWS

Home | Current Version | Previous Version | Text Only | Print | Product List | Glossary On
Versions: 1 2 3 4 5 6 7 8 9 10 11 12 13 14 15 16 17
000
FTUS43 KDVN 231100
TAFBRL
TAF
KBRL 231120Z 2312/2412 11008KT P6SM BKN120
     FM231400 10011KT P6SM OVC100
     FM231900 14013KT P6SM VCSH OVC100
     FM240200 14016G23KT P6SM VCSH OVC060=

USA.gov is the U.S. government's official web portal to all federal, state and local government web resources and services.